Airport View

Enter AWOS ICAO identifier for current METAR.

ex. KFNL

KEFT 171227Z AUTO 16010KT 10SM CLR M01/M03 A2999 RMK AO2 T10071028

17 Nov 2019 12:24

Frequency: 118.375

Phone: 608-328-8359

Other Area AWOS: KFEP - KJVL - KC29 - KMRJ

TAF KMSN 171120Z 1712/1812 17008KT P6SM OVC150 FM171800 19007KT P6SM -RASN OVC030 FM172000 21005KT 5SM -RASN OVC009 FM172300 24004KT P6SM OVC009 FM180200 29005KT P6SM OVC010 FM180900 30004KT P6SM OVC024